Time;durP1;ratioP1;P1;durP2;ratioP2;P2;SDS_P1;SDS_P2;PMS_P1;PMS_P2;Temp;Humidity;BMP_temperature;BMP_pressure;BME280_temperature;BME280_humidity;BME280_pressure;Samples;Min_cycle;Max_cycle;Signal;HPM_P1;HPM_P2
2023/06/05 00:02:17;;;;;;;5.35;4.63;;;;;;;20.43;48.09;93490.53;4995680;28;20038;-89
2023/06/05 00:04:43;;;;;;;5.63;4.95;;;;;;;20.41;47.97;93484.81;5030901;28;20063;-89
2023/06/05 00:07:09;;;;;;;4.88;4.28;;;;;;;20.40;48.24;93486.81;5020384;28;20428;-89
2023/06/05 00:09:34;;;;;;;6.43;5.13;;;;;;;20.40;48.25;93497.78;5010035;28;20094;-89
2023/06/05 00:11:59;;;;;;;6.57;4.60;;;;;;;20.43;48.08;93482.28;5027218;28;20045;-89
2023/06/05 00:14:25;;;;;;;7.13;5.30;;;;;;;20.40;48.06;93491.56;5038891;28;20071;-90
2023/06/05 00:16:51;;;;;;;5.55;4.68;;;;;;;20.40;47.98;93481.31;5029771;28;20037;-89
2023/06/05 00:19:17;;;;;;;6.53;5.45;;;;;;;20.39;48.36;93484.59;5034942;28;20048;-89
2023/06/05 00:21:43;;;;;;;4.72;4.25;;;;;;;20.40;48.14;93475.09;5014992;28;20039;-89
2023/06/05 00:24:08;;;;;;;6.75;5.55;;;;;;;20.39;48.04;93484.59;5049700;28;20041;-89
2023/06/05 00:26:34;;;;;;;9.07;5.38;;;;;;;20.37;48.20;93479.63;5026729;28;20072;-89
2023/06/05 00:28:59;;;;;;;5.47;4.55;;;;;;;20.39;48.10;93474.34;5048409;28;20557;-89
2023/06/05 00:31:25;;;;;;;6.82;4.85;;;;;;;20.39;48.11;93488.06;5003809;28;20261;-89
2023/06/05 00:33:51;;;;;;;5.22;4.68;;;;;;;20.40;48.20;93481.31;5026505;28;20041;-89
2023/06/05 00:36:18;;;;;;;5.53;4.90;;;;;;;20.38;48.01;93478.34;5024566;28;20038;-89
2023/06/05 00:38:46;;;;;;;7.03;5.00;;;;;;;20.38;48.12;93486.59;5010718;28;20061;-89
2023/06/05 00:41:11;;;;;;;5.55;4.43;;;;;;;20.38;48.31;93470.13;4993507;28;20064;-89
2023/06/05 00:43:37;;;;;;;5.70;4.20;;;;;;;20.39;48.25;93476.34;4998429;28;20061;-89
2023/06/05 00:46:03;;;;;;;8.10;4.63;;;;;;;20.38;48.24;93472.13;5042496;28;20032;-89
2023/06/05 00:48:29;;;;;;;7.72;5.03;;;;;;;20.39;48.23;93468.13;5012458;28;20044;-89
2023/06/05 00:50:54;;;;;;;5.07;4.35;;;;;;;20.40;48.14;93464.09;5029878;28;20424;-89
2023/06/05 00:53:20;;;;;;;5.10;4.57;;;;;;;20.37;48.39;93471.38;5028784;28;20040;-90
2023/06/05 00:55:45;;;;;;;10.23;4.80;;;;;;;20.39;48.24;93460.63;5018642;28;20038;-90
2023/06/05 00:58:11;;;;;;;5.88;4.90;;;;;;;20.36;48.20;93461.63;5022081;28;20044;-89
2023/06/05 01:00:36;;;;;;;6.25;4.80;;;;;;;20.36;48.42;93461.63;5038313;28;20045;-89
2023/06/05 01:03:02;;;;;;;8.65;5.00;;;;;;;20.35;48.33;93468.38;5026224;28;20046;-89
2023/06/05 01:05:30;;;;;;;5.82;5.13;;;;;;;20.36;48.19;93467.13;5041944;28;20515;-89
2023/06/05 01:07:55;;;;;;;5.95;4.65;;;;;;;20.36;48.23;93466.38;5026547;28;20092;-89
2023/06/05 01:10:20;;;;;;;5.75;4.82;;;;;;;20.35;48.38;93460.16;5013531;28;20037;-90
2023/06/05 01:13:04;;;;;;;6.88;5.30;;;;;;;20.36;48.03;93467.13;5024817;28;20059;-89
2023/06/05 01:15:29;;;;;;;5.60;4.88;;;;;;;20.34;48.34;93463.44;5032576;28;20491;-89
2023/06/05 01:17:57;;;;;;;7.45;4.80;;;;;;;20.35;48.33;93467.66;5044779;28;20033;-90
2023/06/05 01:20:22;;;;;;;5.30;4.80;;;;;;;20.35;48.43;93468.38;4993244;28;22332;-89
2023/06/05 01:22:51;;;;;;;7.72;4.85;;;;;;;20.35;48.23;93465.63;5078949;28;20438;-89
2023/06/05 01:25:18;;;;;;;7.07;4.85;;;;;;;20.33;48.40;93462.69;5016684;28;20106;-89
2023/06/05 01:27:54;;;;;;;8.57;5.15;;;;;;;20.36;48.22;93455.41;5033831;28;20048;-90
2023/06/05 01:30:36;;;;;;;5.93;4.63;;;;;;;20.35;48.22;93459.44;5064581;28;20041;-89
2023/06/05 01:33:08;;;;;;;8.13;5.20;;;;;;;20.34;48.46;93455.94;5040475;28;20102;-89
2023/06/05 01:35:34;;;;;;;5.90;4.78;;;;;;;20.34;48.30;93453.19;5050887;28;20037;-89
2023/06/05 01:38:01;;;;;;;5.25;4.35;;;;;;;20.32;48.21;93461.22;5007367;28;20052;-89
2023/06/05 01:40:27;;;;;;;7.05;4.72;;;;;;;20.31;48.21;93465.22;5012389;28;20041;-89
2023/06/05 01:42:53;;;;;;;6.15;4.20;;;;;;;20.35;48.14;93459.44;5045891;28;20033;-90
2023/06/05 01:45:19;;;;;;;4.90;4.40;;;;;;;20.33;48.21;93454.47;5011345;28;20069;-89
2023/06/05 01:47:48;;;;;;;5.38;4.80;;;;;;;20.34;48.52;93453.19;5032653;28;20083;-89
2023/06/05 01:50:13;;;;;;;6.25;5.07;;;;;;;20.33;48.40;93459.94;5048530;28;20041;-89
2023/06/05 01:52:41;;;;;;;7.20;4.88;;;;;;;20.31;48.62;93453.50;4999654;28;20044;-89
2023/06/05 01:55:12;;;;;;;5.38;4.88;;;;;;;20.31;48.28;93450.75;5019366;28;20041;-89
2023/06/05 01:57:38;;;;;;;5.57;4.88;;;;;;;20.32;48.35;93441.25;5013250;28;20574;-88
2023/06/05 02:00:08;;;;;;;5.15;4.30;;;;;;;20.32;48.22;93444.75;5025580;28;20049;-89
2023/06/05 02:02:34;;;;;;;7.18;4.53;;;;;;;20.33;48.08;93437.25;5029136;28;20615;-89
2023/06/05 02:04:59;;;;;;;8.15;4.20;;;;;;;20.32;48.54;93438.50;5054018;28;20108;-88
2023/06/05 02:07:25;;;;;;;6.90;4.50;;;;;;;20.31;48.38;93442.53;5023015;28;20053;-89
2023/06/05 02:09:50;;;;;;;6.47;4.47;;;;;;;20.30;48.36;93444.53;5048251;28;20049;-89
2023/06/05 02:12:16;;;;;;;7.07;5.35;;;;;;;20.31;48.41;93446.00;4992971;28;20096;-90
2023/06/05 02:14:44;;;;;;;6.25;4.88;;;;;;;20.28;48.19;93440.81;5036513;28;20041;-89
2023/06/05 02:17:13;;;;;;;8.65;5.60;;;;;;;20.30;48.41;93449.28;5015397;28;20045;-89
2023/06/05 02:19:40;;;;;;;5.45;4.55;;;;;;;20.31;48.38;93445.25;5052435;28;20044;-89
2023/06/05 02:22:05;;;;;;;5.78;4.63;;;;;;;20.29;48.34;93439.56;5011954;28;20116;-89
2023/06/05 02:24:31;;;;;;;7.35;4.75;;;;;;;20.31;48.31;93448.00;5013229;28;20103;-89
2023/06/05 02:26:57;;;;;;;6.45;4.68;;;;;;;20.30;48.63;93449.28;5024544;28;20040;-89
2023/06/05 02:29:22;;;;;;;6.05;4.47;;;;;;;20.30;48.42;93439.03;5027989;28;20056;-90
2023/06/05 02:31:48;;;;;;;4.75;4.10;;;;;;;20.32;48.33;93441.25;5023546;28;20033;-89
2023/06/05 02:34:13;;;;;;;6.85;4.63;;;;;;;20.29;48.44;93434.06;5029057;28;20037;-89
2023/06/05 02:36:38;;;;;;;6.82;4.20;;;;;;;20.32;48.56;93438.50;5002830;28;20034;-89
2023/06/05 02:39:04;;;;;;;6.15;4.57;;;;;;;20.32;48.43;93444.00;5024756;28;20050;-89
2023/06/05 02:41:30;;;;;;;6.57;4.50;;;;;;;20.29;48.31;93443.03;5046140;28;20040;-89
2023/06/05 02:43:56;;;;;;;4.78;4.32;;;;;;;20.28;48.18;93438.81;5012541;28;20485;-89
2023/06/05 02:46:21;;;;;;;6.70;4.88;;;;;;;20.27;48.46;93437.31;5027958;28;20720;-89
2023/06/05 02:48:47;;;;;;;6.53;4.97;;;;;;;20.29;48.37;93434.06;5023073;28;20476;-89
2023/06/05 02:51:12;;;;;;;6.18;4.75;;;;;;;20.27;48.55;93442.06;5011878;28;20134;-90
2023/06/05 02:53:38;;;;;;;5.93;4.55;;;;;;;20.26;48.66;93444.09;5051828;28;20064;-90
2023/06/05 02:56:04;;;;;;;5.57;4.57;;;;;;;20.28;48.52;93440.81;5004603;28;20493;-89
2023/06/05 02:58:31;;;;;;;5.25;4.57;;;;;;;20.29;48.52;93442.28;5036958;28;20542;-89
2023/06/05 03:01:01;;;;;;;5.72;4.55;;;;;;;20.28;48.50;93441.56;5012253;28;20041;-89
2023/06/05 03:03:29;;;;;;;5.13;4.63;;;;;;;20.26;48.53;93435.09;5021602;28;20843;-89
2023/06/05 03:05:55;;;;;;;7.72;5.10;;;;;;;20.25;48.70;93426.13;4996505;28;20089;-89
2023/06/05 03:08:21;;;;;;;5.50;4.50;;;;;;;20.26;48.80;93435.09;5035533;28;20091;-89
2023/06/05 03:10:46;;;;;;;5.40;4.20;;;;;;;20.25;48.53;93434.34;5047932;28;20418;-89
2023/06/05 03:13:12;;;;;;;5.53;4.47;;;;;;;20.24;48.59;93435.63;5032875;28;20340;-90
2023/06/05 03:15:37;;;;;;;5.35;4.80;;;;;;;20.26;48.47;93424.13;5025647;28;20100;-89
2023/06/05 03:18:03;;;;;;;6.35;5.28;;;;;;;20.24;48.63;93426.66;5044176;28;20038;-89
2023/06/05 03:20:29;;;;;;;5.30;4.00;;;;;;;20.24;48.73;93429.38;5011358;28;20484;-89
2023/06/05 03:22:56;;;;;;;5.97;4.95;;;;;;;20.22;48.73;93437.41;4999834;28;20470;-90
2023/06/05 03:25:22;;;;;;;6.40;4.97;;;;;;;20.24;48.94;93429.38;5015011;28;20060;-89
2023/06/05 03:27:47;;;;;;;5.68;4.78;;;;;;;20.24;48.59;93434.88;5015803;28;20041;-89
2023/06/05 03:30:16;;;;;;;6.38;4.63;;;;;;;20.25;48.67;93425.38;5013814;28;20495;-89
2023/06/05 03:32:41;;;;;;;9.45;5.45;;;;;;;20.34;48.50;93436.00;5038517;28;20065;-88
2023/06/05 03:35:07;;;;;;;14.55;5.00;;;;;;;20.30;48.64;93430.06;5060337;28;20052;-89
2023/06/05 03:37:32;;;;;;;15.68;4.80;;;;;;;20.31;48.97;93428.78;5030884;28;20407;-89
2023/06/05 03:39:59;;;;;;;38.47;25.60;;;;;;;20.34;49.24;93433.25;5018541;28;20400;-88
2023/06/05 03:42:24;;;;;;;17.50;8.95;;;;;;;20.38;48.75;93431.69;5022295;28;20037;-91
2023/06/05 03:44:50;;;;;;;233.05;107.60;;;;;;;20.39;48.51;93435.16;5036848;28;20448;-91
2023/06/05 03:47:16;;;;;;;63.00;26.58;;;;;;;20.40;48.61;93431.16;5022288;28;20528;-93
2023/06/05 03:49:45;;;;;;;76.95;33.60;;;;;;;20.44;48.56;93428.84;5028483;28;20512;-90
2023/06/05 03:52:14;;;;;;;32.42;16.35;;;;;;;20.41;48.50;93436.13;5025795;28;20049;-88
2023/06/05 03:54:40;;;;;;;41.85;19.73;;;;;;;20.40;48.40;93434.66;5002391;28;20504;-88
2023/06/05 03:57:12;;;;;;;33.67;18.08;;;;;;;20.40;48.49;93436.66;5032697;28;20038;-88
2023/06/05 03:59:37;;;;;;;43.83;21.55;;;;;;;20.42;48.51;93436.88;5029442;28;20041;-89
2023/06/05 04:02:04;;;;;;;45.83;13.60;;;;;;;20.30;49.12;93447.28;4995606;28;20417;-89
2023/06/05 04:04:29;;;;;;;31.83;10.43;;;;;;;20.26;49.36;93437.84;5052144;28;20049;-89
2023/06/05 04:06:55;;;;;;;50.05;14.63;;;;;;;20.13;49.92;93442.03;5017061;28;20326;-91
2023/06/05 04:09:20;;;;;;;60.67;17.92;;;;;;;20.14;50.00;93448.97;5023602;28;20042;-91
2023/06/05 04:11:47;;;;;;;68.90;21.45;;;;;;;20.12;49.97;93446.03;5029539;28;20041;-89
2023/06/05 04:14:12;;;;;;;100.90;33.17;;;;;;;20.03;50.51;93443.66;5014480;28;20049;-89
2023/06/05 04:16:38;;;;;;;112.85;35.05;;;;;;;19.99;50.63;93445.97;4997222;28;20501;-90
2023/06/05 04:19:06;;;;;;;108.55;46.58;;;;;;;20.00;50.66;93439.22;5043542;28;20113;-90
2023/06/05 04:21:37;;;;;;;105.93;47.90;;;;;;;19.98;50.61;93447.22;5044142;28;20037;-94
2023/06/05 04:24:07;;;;;;;133.27;59.20;;;;;;;19.96;51.11;93444.25;5083107;28;20041;-89
2023/06/05 04:26:33;;;;;;;150.68;61.88;;;;;;;19.88;51.21;93448.88;5032479;28;20081;-91
2023/06/05 04:28:59;;;;;;;148.60;64.18;;;;;;;19.90;51.21;93448.34;5046056;28;20041;-92
2023/06/05 04:31:25;;;;;;;154.20;64.00;;;;;;;19.84;51.38;93440.94;5043325;28;20063;-88
2023/06/05 04:33:51;;;;;;;147.98;62.60;;;;;;;19.94;51.28;93435.06;5034211;28;20520;-88
2023/06/05 04:36:20;;;;;;;147.50;55.00;;;;;;;19.87;51.33;93439.16;5053633;28;20037;-90
2023/06/05 04:38:46;;;;;;;152.07;53.65;;;;;;;19.81;51.51;93441.97;5028156;28;20073;-93
2023/06/05 04:41:12;;;;;;;151.95;58.35;;;;;;;19.86;51.41;93448.66;5042187;28;20041;-92
2023/06/05 04:43:40;;;;;;;201.80;66.32;;;;;;;19.93;51.42;93430.81;5066421;28;20109;-89
2023/06/05 04:46:06;;;;;;;169.55;66.50;;;;;;;19.98;51.23;93435.50;5057185;28;20046;-89
2023/06/05 04:48:31;;;;;;;152.73;65.50;;;;;;;20.09;50.58;93432.63;5063078;28;20116;-88
2023/06/05 04:50:57;;;;;;;148.30;64.45;;;;;;;20.06;50.52;93430.91;5072631;28;20042;-89
2023/06/05 04:53:22;;;;;;;145.93;65.30;;;;;;;20.12;50.60;93426.09;5027436;28;20068;-93
2023/06/05 04:55:48;;;;;;;151.55;56.20;;;;;;;19.96;51.36;93440.75;5051056;28;20067;-88
2023/06/05 04:58:15;;;;;;;118.13;53.75;;;;;;;19.91;51.33;93433.38;4994042;28;20042;-90
2023/06/05 05:00:44;;;;;;;103.07;47.22;;;;;;;19.99;51.25;93436.97;5018448;28;20153;-93
2023/06/05 05:03:11;;;;;;;83.53;41.42;;;;;;;19.95;51.16;93436.53;5023480;28;20037;-89
2023/06/05 05:05:37;;;;;;;86.57;40.03;;;;;;;19.94;51.31;93437.81;5018931;28;20042;-90
2023/06/05 05:08:02;;;;;;;127.28;41.50;;;;;;;19.92;51.17;93441.06;5035848;28;20584;-88
2023/06/05 05:10:28;;;;;;;174.45;44.35;;;;;;;19.81;51.96;93438.47;5048458;28;20049;-90
2023/06/05 05:12:53;;;;;;;189.48;41.67;;;;;;;19.75;51.91;93435.81;5030664;28;20041;-90
2023/06/05 05:15:20;;;;;;;126.47;34.83;;;;;;;19.75;52.09;93437.81;5043860;28;20050;-91
2023/06/05 05:17:45;;;;;;;95.57;29.90;;;;;;;19.87;51.67;93433.66;5025836;28;20037;-91
2023/06/05 05:20:12;;;;;;;74.35;27.42;;;;;;;19.80;51.95;93434.25;5043159;28;20042;-89
2023/06/05 05:22:38;;;;;;;48.70;22.48;;;;;;;19.78;52.09;93437.50;5007970;28;20041;-91
2023/06/05 05:25:03;;;;;;;55.03;23.13;;;;;;;19.76;52.08;93434.53;5022194;28;20112;-89
2023/06/05 05:27:29;;;;;;;57.70;20.38;;;;;;;19.77;52.17;93435.28;5043267;28;20045;-89
2023/06/05 05:29:56;;;;;;;41.95;17.92;;;;;;;19.76;52.21;93436.56;5048653;28;20125;-91
2023/06/05 05:32:22;;;;;;;31.05;15.13;;;;;;;19.72;52.43;93434.09;5024114;28;20046;-92
2023/06/05 05:34:47;;;;;;;30.02;15.43;;;;;;;19.70;52.63;93433.16;5018304;28;20278;-90
2023/06/05 05:37:13;;;;;;;23.58;14.55;;;;;;;19.56;52.91;93435.06;5034736;28;20126;-90
2023/06/05 05:39:39;;;;;;;34.38;13.00;;;;;;;19.54;52.86;93429.34;5027334;28;20037;-89
2023/06/05 05:42:05;;;;;;;25.98;12.00;;;;;;;19.65;52.98;93431.22;5039482;28;20045;-90
2023/06/05 05:44:30;;;;;;;29.27;12.27;;;;;;;19.59;52.94;93431.28;5018307;28;20049;-91
2023/06/05 05:46:56;;;;;;;26.40;11.57;;;;;;;19.67;52.87;93439.69;4994170;28;20117;-90
2023/06/05 05:49:24;;;;;;;38.20;17.73;;;;;;;19.77;52.85;93427.06;5010278;28;20045;-88
2023/06/05 05:51:50;;;;;;;47.42;23.35;;;;;;;19.61;53.09;93433.50;4992941;28;20045;-90
2023/06/05 05:54:15;;;;;;;51.58;26.77;;;;;;;19.63;53.20;93436.47;5007713;28;20504;-92
2023/06/05 05:56:47;;;;;;;57.60;29.67;;;;;;;19.61;53.26;93433.50;4998826;28;20042;-91
2023/06/05 05:59:13;;;;;;;65.55;30.75;;;;;;;19.65;53.12;93439.44;5020304;28;20058;-88
2023/06/05 06:01:38;;;;;;;59.65;27.35;;;;;;;19.65;53.22;93442.19;5000855;28;20049;-92
2023/06/05 06:04:03;;;;;;;54.92;28.30;;;;;;;19.49;53.65;93438.34;5050783;28;20080;-92
2023/06/05 06:06:29;;;;;;;65.05;33.50;;;;;;;19.56;53.63;93445.28;5008418;28;20064;-93
2023/06/05 06:08:55;;;;;;;45.05;25.08;;;;;;;19.64;53.45;93444.19;5033158;28;20037;-91
2023/06/05 06:11:20;;;;;;;49.60;26.25;;;;;;;19.69;53.73;93443.38;5004133;28;20046;-88
2023/06/05 06:13:48;;;;;;;41.22;21.77;;;;;;;19.72;53.36;93439.59;5048570;28;20040;-91
2023/06/05 06:16:14;;;;;;;46.95;26.67;;;;;;;19.60;53.68;93440.25;5035518;28;20037;-92
2023/06/05 06:18:39;;;;;;;53.40;26.63;;;;;;;19.64;53.61;93441.44;5051883;28;20104;-92
2023/06/05 06:21:05;;;;;;;41.10;23.13;;;;;;;19.71;53.50;93442.84;5035645;28;20084;-90
2023/06/05 06:23:30;;;;;;;45.67;21.30;;;;;;;19.65;53.70;93444.94;5056384;28;20116;-91
2023/06/05 06:25:56;;;;;;;29.90;17.33;;;;;;;19.68;53.76;93441.16;5063931;28;20048;-91
2023/06/05 06:28:21;;;;;;;26.40;15.82;;;;;;;19.74;53.62;93439.06;5048329;28;20048;-92
2023/06/05 06:30:47;;;;;;;31.65;17.20;;;;;;;19.65;53.73;93442.94;5042578;28;20459;-90
2023/06/05 06:33:13;;;;;;;33.75;20.10;;;;;;;19.66;53.79;93440.94;4996882;28;20451;-92
2023/06/05 06:35:39;;;;;;;48.55;25.08;;;;;;;19.77;53.46;93440.78;5041277;28;20052;-90
2023/06/05 06:38:04;;;;;;;64.10;26.77;;;;;;;19.71;53.66;93440.84;5008093;28;20070;-93
2023/06/05 06:40:30;;;;;;;65.65;25.52;;;;;;;19.68;53.69;93441.91;5037345;28;20037;-92
2023/06/05 06:42:55;;;;;;;61.40;24.35;;;;;;;19.69;53.81;93435.16;5034662;28;20036;-90
2023/06/05 06:45:21;;;;;;;73.22;29.55;;;;;;;19.60;54.04;93441.00;4994322;28;20125;-88
2023/06/05 06:47:48;;;;;;;43.38;20.13;;;;;;;19.57;54.10;93444.03;4997348;28;20115;-89
2023/06/05 06:50:14;;;;;;;43.65;21.33;;;;;;;19.61;54.16;93437.00;5023849;28;20041;-88
2023/06/05 06:52:39;;;;;;;54.42;20.67;;;;;;;19.55;54.10;93441.81;5023691;28;20032;-89
2023/06/05 06:55:06;;;;;;;42.35;20.35;;;;;;;19.62;54.18;93440.47;5020383;28;20037;-88
2023/06/05 06:57:31;;;;;;;40.55;19.25;;;;;;;19.68;53.96;93441.16;5036800;28;20131;-88
2023/06/05 06:59:58;;;;;;;51.40;21.73;;;;;;;19.66;54.27;93457.38;5044013;28;20069;-90
2023/06/05 07:02:24;;;;;;;47.30;21.02;;;;;;;19.69;54.30;93456.34;5004905;28;20045;-89
2023/06/05 07:04:49;;;;;;;58.33;24.25;;;;;;;19.73;54.11;93449.28;5026533;28;20102;-90
2023/06/05 07:07:16;;;;;;;53.55;21.63;;;;;;;19.74;54.15;93445.28;5016523;28;20030;-88
2023/06/05 07:09:42;;;;;;;61.22;23.25;;;;;;;19.67;54.29;93445.16;5039780;28;20099;-88
2023/06/05 07:12:13;;;;;;;42.90;18.70;;;;;;;19.73;54.10;93449.28;5018614;28;20029;-89
2023/06/05 07:14:38;;;;;;;47.05;19.10;;;;;;;19.70;54.52;93455.81;5039167;28;20325;-89
2023/06/05 07:17:04;;;;;;;38.90;17.35;;;;;;;19.60;54.59;93443.00;5011485;28;20038;-88
2023/06/05 07:19:30;;;;;;;38.75;17.05;;;;;;;19.56;54.72;93454.25;5034358;28;20041;-90
2023/06/05 07:21:57;;;;;;;42.72;16.10;;;;;;;19.68;54.69;93449.38;5029057;28;20451;-89
2023/06/05 07:24:24;;;;;;;42.17;15.57;;;;;;;19.68;54.54;93455.63;5029445;28;20099;-89
2023/06/05 07:26:51;;;;;;;36.20;18.15;;;;;;;19.61;54.78;93449.97;4992750;28;20045;-87
2023/06/05 07:29:17;;;;;;;59.63;23.83;;;;;;;19.64;54.74;93454.41;5026589;28;20041;-86
2023/06/05 07:31:43;;;;;;;66.03;28.58;;;;;;;19.64;54.89;93454.41;5039947;28;20061;-90
2023/06/05 07:34:08;;;;;;;70.00;33.83;;;;;;;19.62;55.17;93456.94;5035301;28;20405;-89
2023/06/05 07:36:36;;;;;;;122.97;48.03;;;;;;;19.61;55.08;93455.44;5019580;28;20052;-88
2023/06/05 07:39:02;;;;;;;95.82;43.78;;;;;;;19.61;55.01;93450.72;5033379;28;20065;-91
2023/06/05 07:41:27;;;;;;;84.18;39.63;;;;;;;19.54;55.26;93447.81;5077277;28;20072;-91
2023/06/05 07:43:53;;;;;;;96.72;46.63;;;;;;;19.61;54.91;93445.22;5039671;28;20168;-90
2023/06/05 07:46:19;;;;;;;103.15;49.45;;;;;;;19.63;54.95;93448.19;5043163;28;20105;-90
2023/06/05 07:48:44;;;;;;;96.80;53.17;;;;;;;19.55;55.31;93443.81;5005873;28;20095;-88
2023/06/05 07:51:10;;;;;;;96.68;54.33;;;;;;;19.67;54.96;93442.41;5008257;28;20176;-90
2023/06/05 07:53:36;;;;;;;95.45;48.33;;;;;;;19.74;54.83;93439.06;5044717;28;20041;-89
2023/06/05 07:56:02;;;;;;;85.15;47.75;;;;;;;19.62;55.13;93443.97;5033706;28;20045;-89
2023/06/05 07:58:29;;;;;;;79.00;43.03;;;;;;;19.71;55.52;93442.84;5042953;28;20045;-91
2023/06/05 08:00:56;;;;;;;91.63;48.30;;;;;;;19.72;55.28;93436.84;5053525;28;20040;-89
2023/06/05 08:03:23;;;;;;;109.78;55.15;;;;;;;19.65;55.51;93439.44;5009612;28;20038;-89
2023/06/05 08:05:51;;;;;;;95.05;49.08;;;;;;;19.71;55.36;93440.84;5014038;28;20519;-87
2023/06/05 08:08:17;;;;;;;87.32;49.83;;;;;;;19.63;55.52;93441.97;5018480;28;20137;-88
2023/06/05 08:10:43;;;;;;;110.45;55.88;;;;;;;19.60;55.71;93443.00;5024575;28;20041;-89
2023/06/05 08:13:09;;;;;;;89.32;49.25;;;;;;;19.67;55.41;93436.94;5028053;28;20041;-89
2023/06/05 08:15:34;;;;;;;102.03;53.72;;;;;;;19.72;55.39;93447.81;5031909;28;20096;-90
2023/06/05 08:18:00;;;;;;;245.88;137.50;;;;;;;19.69;55.77;93451.63;5042135;28;20041;-93
2023/06/05 08:20:25;;;;;;;226.55;119.00;;;;;;;19.69;55.48;93450.88;5062295;28;20514;-93
2023/06/05 08:22:51;;;;;;;211.63;106.60;;;;;;;19.75;55.31;93446.78;5029552;28;20033;-90
2023/06/05 08:25:16;;;;;;;230.85;123.20;;;;;;;19.69;55.73;93454.34;5023036;28;20635;-89
2023/06/05 08:27:42;;;;;;;217.40;115.63;;;;;;;19.72;55.68;93456.03;5032970;28;20049;-92
2023/06/05 08:30:09;;;;;;;204.90;112.03;;;;;;;19.68;55.48;93444.66;5000931;28;20287;-91
2023/06/05 08:32:34;;;;;;;204.15;104.85;;;;;;;19.61;55.90;93447.22;5053131;28;20037;-92
2023/06/05 08:35:00;;;;;;;218.18;122.15;;;;;;;19.62;55.94;93456.94;5048335;28;20047;-92
2023/06/05 08:37:28;;;;;;;232.65;126.03;;;;;;;19.59;55.73;93453.22;5019252;28;20103;-92
2023/06/05 08:39:53;;;;;;;222.45;122.80;;;;;;;19.60;55.90;93441.00;5051502;28;20051;-86
2023/06/05 08:42:20;;;;;;;217.90;120.45;;;;;;;19.67;55.90;93453.38;5016091;28;20449;-95
2023/06/05 08:44:48;;;;;;;216.90;118.25;;;;;;;19.63;55.88;93452.94;5060727;28;20036;-92
2023/06/05 08:47:15;;;;;;;201.93;103.05;;;;;;;19.73;55.67;93454.78;4997852;28;20055;-91
2023/06/05 08:49:42;;;;;;;220.98;104.28;;;;;;;19.72;55.62;93458.03;5027355;28;20498;-93
2023/06/05 08:52:08;;;;;;;201.65;100.15;;;;;;;19.65;55.89;93453.91;5048962;28;20076;-89
2023/06/05 08:54:38;;;;;;;195.20;95.57;;;;;;;19.65;55.69;93453.16;4991503;28;20050;-91
2023/06/05 08:57:04;;;;;;;180.98;89.07;;;;;;;19.69;55.89;93450.88;5046943;28;20048;-88
2023/06/05 08:59:30;;;;;;;154.90;76.68;;;;;;;19.78;55.70;93453.22;5058107;28;20033;-94
2023/06/05 09:01:56;;;;;;;98.40;50.30;;;;;;;19.65;56.24;93450.41;5059863;28;20028;-95
2023/06/05 09:04:22;;;;;;;92.43;48.00;;;;;;;19.69;56.27;93451.63;5030368;28;20057;-92
2023/06/05 09:06:48;;;;;;;69.15;34.63;;;;;;;19.69;56.14;93448.88;5046808;28;20123;-93
2023/06/05 09:09:16;;;;;;;68.32;32.17;;;;;;;19.67;56.35;93442.41;5028298;28;20046;-93
2023/06/05 09:11:42;;;;;;;73.85;33.10;;;;;;;19.67;56.70;93458.88;5050124;28;20492;-95
2023/06/05 09:14:07;;;;;;;62.10;28.90;;;;;;;19.77;56.72;93449.00;5020244;28;20071;-93
2023/06/05 09:16:37;;;;;;;72.68;30.88;;;;;;;19.65;56.59;93453.16;5046144;28;20041;-93
2023/06/05 09:19:03;;;;;;;45.72;18.92;;;;;;;19.67;56.23;93459.63;5031985;28;20038;-92
2023/06/05 09:21:35;;;;;;;52.33;21.27;;;;;;;19.71;56.53;93464.78;5055606;28;20036;-93
2023/06/05 09:24:09;;;;;;;40.05;20.15;;;;;;;19.65;56.46;93461.38;5012962;28;20049;-92
2023/06/05 09:26:48;;;;;;;33.67;17.60;;;;;;;19.68;56.41;93458.34;5062893;28;20041;-92
2023/06/05 09:29:22;;;;;;;45.70;25.20;;;;;;;19.62;56.63;93454.19;5058388;28;20044;-91
2023/06/05 09:31:50;;;;;;;103.00;35.13;;;;;;;19.70;56.45;93461.31;5051292;28;20052;-93
2023/06/05 09:34:31;;;;;;;61.42;31.33;;;;;;;19.71;56.33;93460.03;5001354;28;20461;-93
2023/06/05 09:37:00;;;;;;;51.90;28.45;;;;;;;19.55;56.65;93461.00;5040969;28;20105;-92
2023/06/05 09:39:26;;;;;;;47.45;22.73;;;;;;;19.65;56.63;93455.91;5059660;28;20109;-95
2023/06/05 09:41:53;;;;;;;37.88;19.98;;;;;;;19.59;56.86;93457.97;5057618;28;20099;-92
2023/06/05 09:44:19;;;;;;;27.67;14.88;;;;;;;19.61;56.75;93460.94;5038082;28;20036;-93
2023/06/05 09:46:52;;;;;;;50.95;17.98;;;;;;;19.52;56.92;93459.28;5042037;28;20515;-89
2023/06/05 09:49:28;;;;;;;75.18;20.58;;;;;;;19.64;56.70;93466.13;5065506;28;20048;-90
2023/06/05 09:51:55;;;;;;;57.13;18.55;;;;;;;19.68;56.57;93468.59;5048157;28;20042;-93
2023/06/05 09:54:22;;;;;;;39.63;13.02;;;;;;;19.60;56.86;93462.19;5071286;28;20042;-93
2023/06/05 09:56:51;;;;;;;42.92;12.80;;;;;;;19.67;56.92;93459.63;5025808;28;20038;-92
2023/06/05 09:59:21;;;;;;;28.45;10.73;;;;;;;19.67;56.58;93462.34;5046838;28;20046;-92
2023/06/05 10:01:47;;;;;;;23.30;10.38;;;;;;;19.68;56.94;93450.13;5039216;28;20029;-92
2023/06/05 10:04:13;;;;;;;23.48;9.63;;;;;;;19.70;56.85;93460.59;5034558;28;20053;-90
2023/06/05 10:06:38;;;;;;;18.58;8.13;;;;;;;19.62;56.89;93462.41;5017052;28;20050;-91
2023/06/05 10:09:04;;;;;;;13.70;8.50;;;;;;;19.61;57.30;93449.97;5021075;28;20041;-91
2023/06/05 10:11:31;;;;;;;12.38;7.57;;;;;;;19.62;57.20;93448.72;5014830;28;20044;-91
2023/06/05 10:13:59;;;;;;;9.30;7.25;;;;;;;19.62;57.40;93445.97;5031202;28;20044;-89
2023/06/05 10:16:28;;;;;;;13.80;7.38;;;;;;;19.58;57.34;93445.50;5030236;28;20045;-91
2023/06/05 10:18:55;;;;;;;25.83;13.88;;;;;;;19.55;57.64;93441.81;5025159;28;20128;-91
2023/06/05 10:21:21;;;;;;;12.55;8.68;;;;;;;19.63;57.58;93450.19;5023548;28;20493;-90
2023/06/05 10:23:48;;;;;;;13.73;8.18;;;;;;;19.55;58.02;93438.31;5034170;28;20036;-90
2023/06/05 10:26:31;;;;;;;10.55;8.50;;;;;;;19.66;57.25;93444.41;5043832;28;20072;-90
2023/06/05 10:29:18;;;;;;;32.55;27.92;;;;;;;19.67;57.46;93442.41;5037080;28;20158;-89
2023/06/05 10:31:53;;;;;;;10.20;8.18;;;;;;;19.63;57.42;93439.97;5036090;28;20046;-92
2023/06/05 10:34:28;;;;;;;12.55;8.60;;;;;;;19.67;57.14;93442.41;5050024;28;20033;-89
2023/06/05 10:37:21;;;;;;;9.98;7.97;;;;;;;19.64;57.44;93437.97;5018751;28;20033;-92
2023/06/05 10:39:49;;;;;;;12.27;8.23;;;;;;;19.67;57.32;93443.16;5040422;28;20036;-90
2023/06/05 10:42:27;;;;;;;13.00;9.05;;;;;;;19.56;57.36;93437.06;5021215;28;20117;-90
2023/06/05 10:44:52;;;;;;;38.63;20.83;;;;;;;19.65;57.31;93442.19;5019994;28;20590;-91
2023/06/05 10:47:51;;;;;;;28.02;16.88;;;;;;;19.63;57.30;93439.97;5008525;28;20080;-91
2023/06/05 10:50:19;;;;;;;33.22;19.60;;;;;;;19.62;57.57;93437.75;5004489;28;20487;-90
2023/06/05 10:52:45;;;;;;;19.17;11.73;;;;;;;19.58;57.59;93438.03;5071642;28;20044;-88
2023/06/05 10:55:15;;;;;;;17.50;9.98;;;;;;;19.53;57.70;93436.09;5016642;28;20403;-90
2023/06/05 10:58:02;;;;;;;11.50;9.00;;;;;;;19.67;57.20;93436.94;5017654;28;20139;-92
2023/06/05 11:00:28;;;;;;;60.15;28.08;;;;;;;19.67;57.32;93443.16;5009312;28;20071;-89
2023/06/05 11:02:55;;;;;;;24.13;14.18;;;;;;;19.61;57.59;93442.47;5053075;28;20037;-93
2023/06/05 11:05:21;;;;;;;18.52;13.50;;;;;;;19.63;57.61;93436.47;5018816;28;20029;-89
2023/06/05 11:07:46;;;;;;;42.17;23.70;;;;;;;19.71;57.31;93434.63;5017165;28;20064;-92
2023/06/05 11:10:20;;;;;;;31.08;17.27;;;;;;;19.59;57.53;93433.28;5032193;28;20045;-93
2023/06/05 11:12:45;;;;;;;54.97;29.50;;;;;;;19.67;57.55;93437.69;5068874;28;20036;-89
2023/06/05 11:15:23;;;;;;;63.53;34.92;;;;;;;19.65;57.53;93437.44;5054059;28;20041;-91
2023/06/05 11:17:48;;;;;;;63.40;38.13;;;;;;;19.69;57.52;93442.66;5035101;28;20037;-91
2023/06/05 11:20:23;;;;;;;105.72;62.53;;;;;;;19.66;57.48;93438.94;5046343;28;20072;-92
2023/06/05 11:22:55;;;;;;;115.53;65.13;;;;;;;19.70;57.44;93424.94;5033062;28;20045;-90